Jasper — TCTL2 — position and weather

sailwx.info

Track history (hours):
 
Tides and Currents Weather Stations Pressure Air Temp Water Temp Dewpoint Dewpoint Depression Visibility Wind Speed Wind Dir Waves Ship Positions

Jasper

Last reported at 2015-Jul-03 15:03 UTC. Time now 2015-Jul-07 19:45 UTC.
Position N 40°26' E 029°05'.

Length 94 m; draft 6.7 m.

Type: Cargo ship. MMSI: 271002689.

Date/timePositionNaut miles runAvg speedWind from/ knotsBaromVisibWave heightAir tempDewpointWater temp
2015-Jul-03 15:03N 40°26' E 029°05'212 6.7
2015-Jul-02 07:21N 40°38' E 024°26'6 8.2
2015-Jul-02 06:33N 40°44' E 024°25'9 8.5
2015-Jul-02 05:33N 40°52' E 024°28'4 0.1
2015-Jun-30 03:32N 40°57' E 024°29'0 0.4
2015-Jun-30 02:32N 40°56' E 024°29'0 0.0
2015-Jun-30 01:33N 40°56' E 024°29'0 0.0
2015-Jun-30 00:27N 40°56' E 024°29'0 0.0
2015-Jun-29 23:31N 40°56' E 024°29'0 0.0
2015-Jun-29 22:31N 40°56' E 024°29'0 0.0
2015-Jun-29 21:31N 40°56' E 024°29'0 0.0
2015-Jun-29 20:32N 40°56' E 024°29'0 0.0
2015-Jun-29 19:20N 40°56' E 024°29'0 0.1
2015-Jun-29 18:32N 40°56' E 024°30'0 0.0
2015-Jun-29 17:33N 40°56' E 024°30'7 7.0
2015-Jun-29 16:34N 40°50' E 024°26'10 8.6
2015-Jun-29 15:20N 40°39' E 024°25'11 8.6
2015-Jun-29 14:04N 40°32' E 024°35'198 7.4
2015-Jun-28 11:25N 40°52' E 028°55'28 0.7
2015-Jun-26 16:11N 40°25' E 029°05'0 0.0
2015-Jun-26 15:19N 40°25' E 029°05'0 0.0
2015-Jun-26 14:31N 40°25' E 029°05'0 0.0
2015-Jun-26 13:23N 40°25' E 029°05'0 0.0
2015-Jun-26 12:29N 40°25' E 029°05'2 0.5
2015-Jun-26 08:22N 40°26' E 029°03'29 6.0
2015-Jun-26 03:32N 40°55' E 028°56'  
Track history (hours):
 
Tides and Currents Weather Stations Pressure Air Temp Water Temp Dewpoint Dewpoint Depression Visibility Wind Speed Wind Dir Waves Ship Positions

Jasper

Last reported at 2015-Jul-03 15:03 UTC. Time now 2015-Jul-07 19:45 UTC.
Position N 40°26' E 029°05'.

Length 94 m; draft 6.7 m.

Type: Cargo ship. MMSI: 271002689.

Date/timePositionNaut miles runAvg speedWind from/ knotsBaromVisibWave heightAir tempDewpointWater temp
2015-Jul-03 15:03N 40°26' E 029°05'212 6.7
2015-Jul-02 07:21N 40°38' E 024°26'6 8.2
2015-Jul-02 06:33N 40°44' E 024°25'9 8.5
2015-Jul-02 05:33N 40°52' E 024°28'4 0.1
2015-Jun-30 03:32N 40°57' E 024°29'0 0.4
2015-Jun-30 02:32N 40°56' E 024°29'0 0.0
2015-Jun-30 01:33N 40°56' E 024°29'0 0.0
2015-Jun-30 00:27N 40°56' E 024°29'0 0.0
2015-Jun-29 23:31N 40°56' E 024°29'0 0.0
2015-Jun-29 22:31N 40°56' E 024°29'0 0.0
2015-Jun-29 21:31N 40°56' E 024°29'0 0.0
2015-Jun-29 20:32N 40°56' E 024°29'0 0.0
2015-Jun-29 19:20N 40°56' E 024°29'0 0.1
2015-Jun-29 18:32N 40°56' E 024°30'0 0.0
2015-Jun-29 17:33N 40°56' E 024°30'7 7.0
2015-Jun-29 16:34N 40°50' E 024°26'10 8.6
2015-Jun-29 15:20N 40°39' E 024°25'11 8.6
2015-Jun-29 14:04N 40°32' E 024°35'198 7.4
2015-Jun-28 11:25N 40°52' E 028°55'28 0.7
2015-Jun-26 16:11N 40°25' E 029°05'0 0.0
2015-Jun-26 15:19N 40°25' E 029°05'0 0.0
2015-Jun-26 14:31N 40°25' E 029°05'0 0.0
2015-Jun-26 13:23N 40°25' E 029°05'0 0.0
2015-Jun-26 12:29N 40°25' E 029°05'2 0.5
2015-Jun-26 08:22N 40°26' E 029°03'29 6.0
2015-Jun-26 03:32N 40°55' E 028°56'  

Dump ship's entire track history